Silver Star, Montana
Current Conditions -  °F | °C
As of 2:53 PM on Tuesday 25 Nov 2014 (Local Time) from KBTM Reporting Station
Light Snow Light Snow  
Wind Chill: 24°   Ceiling: 1100
Heat Index: 32°   Visibility: 0.75mi
Dew Point: 30°   Wind: 10mph
Humidity: 92%   Direction: 290°WNW
Pressure: 30.04"   Gusts: NA
Location:  45.69°N, 112.28°W
Report Text: KBTM 252153Z AUTO 29009KT 3/4SM -SN BR VV011 00/M01 A3004 RMK AO2 SLP195 P0005 T00001011
Loading
Personal Weather Stations






























Interactive Weather Map New forecast layout! Learn more

10-Day Weather Forecast

Advertisements
Track Severe Weather on mobile